Time;durP1;ratioP1;P1;durP2;ratioP2;P2;SDS_P1;SDS_P2;PMS_P1;PMS_P2;Temp;Humidity;BMP_temperature;BMP_pressure;BME280_temperature;BME280_humidity;BME280_pressure;Samples;Min_cycle;Max_cycle;Signal;HPM_P1;HPM_P2
2023/08/25 00:00:50;;;;;;;9.88;5.82;;;;;16.80;93987.00;;;;7402944;19;20665;-85
2023/08/25 00:03:19;;;;;;;9.10;5.40;;;;;16.80;93998.00;;;;7401489;19;20616;-82
2023/08/25 00:05:50;;;;;;;6.50;4.90;;;;;16.80;93991.00;;;;7400822;19;20153;-83
2023/08/25 00:08:24;;;;;;;7.05;4.90;;;;;16.70;93989.00;;;;7395173;19;20145;-82
2023/08/25 00:10:58;;;;;;;7.55;4.85;;;;;16.80;93987.00;;;;7400775;19;20145;-84
2023/08/25 00:13:35;;;;;;;7.95;4.82;;;;;16.80;93985.00;;;;7402274;19;20304;-82
2023/08/25 00:16:06;;;;;;;7.85;4.80;;;;;16.80;93981.00;;;;7399520;19;20587;-82
2023/08/25 00:18:42;;;;;;;5.75;4.63;;;;;16.90;93976.00;;;;7401740;19;20125;-84
2023/08/25 00:21:12;;;;;;;7.95;4.55;;;;;17.00;93970.00;;;;7401431;19;20121;-83
2023/08/25 00:23:45;;;;;;;4.72;4.00;;;;;17.00;93973.00;;;;7400546;19;20136;-82
2023/08/25 00:26:15;;;;;;;5.32;4.35;;;;;17.10;93963.00;;;;7403758;19;20133;-83
2023/08/25 00:28:48;;;;;;;5.93;4.07;;;;;17.20;93955.00;;;;7399803;19;20139;-83
2023/08/25 00:31:22;;;;;;;5.75;4.15;;;;;17.20;93958.00;;;;7399830;19;20132;-83
2023/08/25 00:33:58;;;;;;;5.78;3.90;;;;;17.20;93955.00;;;;7401236;19;20155;-83
2023/08/25 00:36:34;;;;;;;5.00;4.15;;;;;17.10;93940.00;;;;7403046;19;20160;-82
2023/08/25 00:39:08;;;;;;;7.32;4.45;;;;;17.20;93947.00;;;;7399881;19;20129;-82
2023/08/25 00:41:43;;;;;;;4.55;3.88;;;;;17.00;93956.00;;;;7402100;19;20130;-82
2023/08/25 00:44:18;;;;;;;8.32;4.18;;;;;17.00;93947.00;;;;7400015;19;20205;-79
2023/08/25 00:46:46;;;;;;;9.55;3.85;;;;;16.90;93942.00;;;;7400551;19;20611;-79
2023/08/25 00:49:23;;;;;;;7.40;4.05;;;;;16.90;93936.00;;;;7398997;19;20813;-79
2023/08/25 00:51:58;;;;;;;4.82;3.63;;;;;16.90;93937.00;;;;7397563;19;20156;-79
2023/08/25 00:54:29;;;;;;;4.07;3.67;;;;;16.90;93933.00;;;;7398979;19;20149;-79
2023/08/25 00:57:05;;;;;;;4.95;3.92;;;;;16.90;93932.00;;;;7399733;19;20140;-79
2023/08/25 00:59:34;;;;;;;4.95;4.38;;;;;16.90;93929.00;;;;7400213;19;20140;-79
2023/08/25 01:02:22;;;;;;;7.72;4.53;;;;;17.00;93926.00;;;;7389944;19;20207;-89
2023/08/25 01:04:57;;;;;;;5.22;3.75;;;;;17.00;93934.00;;;;7402233;19;20152;-89
2023/08/25 01:07:31;;;;;;;7.05;3.95;;;;;17.10;93935.00;;;;7403224;19;20180;-89
2023/08/25 01:10:09;;;;;;;9.27;4.18;;;;;16.90;93941.00;;;;7403245;19;20129;-88
2023/08/25 01:12:59;;;;;;;7.03;4.25;;;;;16.80;93934.00;;;;7403613;19;20180;-87
2023/08/25 01:15:35;;;;;;;5.35;3.95;;;;;16.80;93927.00;;;;7402752;19;20140;-87
2023/08/25 01:18:15;;;;;;;8.10;4.50;;;;;16.70;93933.00;;;;7403920;19;20148;-89
2023/08/25 01:20:49;;;;;;;4.63;4.15;;;;;16.70;93933.00;;;;7404148;19;20128;-89
2023/08/25 01:23:44;;;;;;;7.03;4.35;;;;;16.70;93936.00;;;;7402426;19;20136;-89
2023/08/25 01:26:19;;;;;;;6.63;4.45;;;;;16.70;93935.00;;;;7405730;19;20172;-89
2023/08/25 01:28:51;;;;;;;4.78;4.25;;;;;16.70;93936.00;;;;7402587;19;20151;-89
2023/08/25 01:31:25;;;;;;;4.60;4.20;;;;;16.70;93936.00;;;;7400422;19;20148;-89
2023/08/25 01:33:55;;;;;;;5.03;4.53;;;;;16.60;93931.00;;;;7402268;19;20159;-89
2023/08/25 01:36:45;;;;;;;6.55;4.25;;;;;16.60;93935.00;;;;7401548;19;20144;-89
2023/08/25 01:39:15;;;;;;;4.90;4.10;;;;;16.50;93939.00;;;;7402275;19;20603;-88
2023/08/25 01:42:05;;;;;;;7.78;4.97;;;;;16.50;93949.00;;;;7402801;19;20167;-89
2023/08/25 01:44:41;;;;;;;6.97;4.63;;;;;16.50;93949.00;;;;7400682;19;20148;-89
2023/08/25 01:47:19;;;;;;;5.22;4.72;;;;;16.50;93941.00;;;;7402246;19;20133;-89
2023/08/25 01:49:47;;;;;;;9.48;6.05;;;;;16.60;93947.00;;;;7403710;19;20137;-88
2023/08/25 01:52:15;;;;;;;8.88;6.50;;;;;16.80;93945.00;;;;7399735;19;20145;-89
2023/08/25 01:54:50;;;;;;;13.77;6.75;;;;;16.80;93949.00;;;;7403885;19;20470;-89
2023/08/25 01:57:18;;;;;;;8.00;7.22;;;;;16.80;93945.00;;;;7403104;19;20144;-89
2023/08/25 01:59:53;;;;;;;9.73;7.25;;;;;16.90;93948.00;;;;7401884;19;20172;-88
2023/08/25 02:02:27;;;;;;;10.18;6.82;;;;;16.90;93945.00;;;;7402801;19;20172;-91
2023/08/25 02:05:02;;;;;;;7.18;6.47;;;;;16.90;93938.00;;;;7402256;19;20644;-88
2023/08/25 02:07:37;;;;;;;7.40;6.70;;;;;16.80;93941.00;;;;7403036;19;20144;-89
2023/08/25 02:10:05;;;;;;;9.27;7.30;;;;;16.90;93939.00;;;;7404928;19;20650;-89
2023/08/25 02:12:40;;;;;;;8.23;6.30;;;;;16.80;93935.00;;;;7402714;19;20594;-89
2023/08/25 02:15:08;;;;;;;8.23;6.30;;;;;16.80;93932.00;;;;7406029;19;20169;-92
2023/08/25 02:17:42;;;;;;;8.75;5.88;;;;;16.70;93935.00;;;;7406010;19;20140;-91
2023/08/25 02:20:12;;;;;;;7.05;6.35;;;;;16.70;93934.00;;;;7407103;19;21016;-91
2023/08/25 02:22:46;;;;;;;6.93;5.45;;;;;16.60;93936.00;;;;7406742;19;20148;-92
2023/08/25 02:25:14;;;;;;;7.32;6.47;;;;;16.50;93929.00;;;;7406760;19;20144;-91
2023/08/25 02:27:50;;;;;;;10.05;6.70;;;;;16.60;93931.00;;;;7406455;19;20149;-92
2023/08/25 02:30:18;;;;;;;8.50;6.15;;;;;16.60;93934.00;;;;7406807;19;20154;-92
2023/08/25 02:32:54;;;;;;;7.35;5.70;;;;;16.60;93930.00;;;;7406731;19;20132;-92
2023/08/25 02:35:29;;;;;;;8.57;5.60;;;;;16.60;93939.00;;;;7407370;19;20167;-92
2023/08/25 02:38:05;;;;;;;8.50;6.03;;;;;16.70;93936.00;;;;7405371;19;20133;-91
2023/08/25 02:40:35;;;;;;;8.68;5.97;;;;;16.70;93933.00;;;;7406431;19;20161;-93
2023/08/25 02:43:10;;;;;;;10.88;6.40;;;;;16.70;93925.00;;;;7408126;19;20160;-91
2023/08/25 02:45:42;;;;;;;8.32;5.60;;;;;16.70;93922.00;;;;7404728;19;20159;-92
2023/08/25 02:48:17;;;;;;;6.20;5.50;;;;;16.60;93912.00;;;;7406485;19;20200;-92
2023/08/25 02:50:46;;;;;;;7.50;5.70;;;;;16.60;93914.00;;;;7405204;19;20148;-92
2023/08/25 02:53:20;;;;;;;6.72;5.38;;;;;16.70;93913.00;;;;7404652;19;20256;-92
2023/08/25 02:55:48;;;;;;;12.48;5.78;;;;;16.70;93904.00;;;;7405890;19;20137;-92
2023/08/25 02:58:23;;;;;;;6.18;5.22;;;;;16.80;93910.00;;;;7407399;19;20148;-92
2023/08/25 03:01:09;;;;;;;6.75;4.80;;;;;16.90;93904.00;;;;7405568;19;20165;-92
2023/08/25 03:03:53;;;;;;;7.90;4.82;;;;;16.90;93895.00;;;;7415051;19;20156;-92
2023/08/25 03:06:20;;;;;;;5.80;4.70;;;;;17.10;93889.00;;;;7422043;19;20483;-93
2023/08/25 03:08:55;;;;;;;6.60;4.65;;;;;17.00;93892.00;;;;7419750;19;20222;-92
2023/08/25 03:11:32;;;;;;;8.80;4.85;;;;;17.10;93891.00;;;;7417543;19;20146;-92
2023/08/25 03:14:07;;;;;;;6.78;4.22;;;;;17.10;93883.00;;;;7420361;19;20212;-93
2023/08/25 03:16:34;;;;;;;5.88;4.43;;;;;17.30;93882.00;;;;7420285;19;20156;-93
2023/08/25 03:19:08;;;;;;;5.68;4.05;;;;;17.60;93877.00;;;;7421934;19;20150;-92
2023/08/25 03:21:36;;;;;;;5.05;4.00;;;;;17.60;93875.00;;;;7421006;19;20137;-92
2023/08/25 03:24:11;;;;;;;5.30;3.50;;;;;17.80;93874.00;;;;7420238;19;20125;-93
2023/08/25 03:26:45;;;;;;;5.55;4.05;;;;;17.80;93872.00;;;;7417467;19;20140;-90
2023/08/25 03:29:20;;;;;;;3.72;3.25;;;;;18.00;93869.00;;;;7420804;19;20136;-91
2023/08/25 03:31:47;;;;;;;9.00;3.83;;;;;18.10;93866.00;;;;7419353;19;20141;-90
2023/08/25 03:34:22;;;;;;;7.43;3.45;;;;;18.00;93864.00;;;;7418652;19;20143;-90
2023/08/25 03:36:56;;;;;;;8.15;3.40;;;;;18.20;93861.00;;;;7416915;19;20148;-91
2023/08/25 03:39:32;;;;;;;5.63;3.22;;;;;18.10;93864.00;;;;7419347;19;20136;-87
2023/08/25 03:42:07;;;;;;;4.63;3.00;;;;;18.20;93857.00;;;;7416051;19;20140;-89
2023/08/25 03:44:41;;;;;;;5.55;3.13;;;;;18.00;93857.00;;;;7415056;19;20144;-90
2023/08/25 03:47:14;;;;;;;6.45;3.00;;;;;18.00;93851.00;;;;7418171;19;20146;-90
2023/08/25 03:49:49;;;;;;;7.18;3.38;;;;;18.10;93851.00;;;;7417026;19;20148;-91
2023/08/25 03:52:18;;;;;;;3.90;3.42;;;;;18.00;93848.00;;;;7415594;19;20137;-90
2023/08/25 03:54:53;;;;;;;4.55;3.35;;;;;18.10;93842.00;;;;7418043;19;20151;-90
2023/08/25 03:57:26;;;;;;;4.10;3.10;;;;;18.00;93839.00;;;;7416802;19;20137;-90
2023/08/25 04:00:01;;;;;;;3.38;3.08;;;;;18.10;93827.00;;;;7416368;19;20161;-89
2023/08/25 04:02:51;;;;;;;5.25;3.50;;;;;18.10;93825.00;;;;7414524;19;20174;-90
2023/08/25 04:05:26;;;;;;;4.38;3.58;;;;;18.20;93826.00;;;;7417711;19;20129;-90
2023/08/25 04:07:56;;;;;;;5.72;3.10;;;;;18.10;93826.00;;;;7417146;19;20145;-90
2023/08/25 04:10:29;;;;;;;6.10;3.38;;;;;18.20;93818.00;;;;7417671;19;20148;-91
2023/08/25 04:12:57;;;;;;;5.60;3.33;;;;;18.20;93825.00;;;;7413884;19;20141;-92
2023/08/25 04:15:26;;;;;;;5.45;3.13;;;;;18.20;93827.00;;;;7411359;19;20152;-91
2023/08/25 04:18:00;;;;;;;3.30;3.00;;;;;18.30;93822.00;;;;7408215;19;20144;-87
2023/08/25 04:20:28;;;;;;;4.30;2.85;;;;;18.20;93816.00;;;;7407328;19;20133;-88
2023/08/25 04:23:05;;;;;;;5.75;2.85;;;;;18.20;93818.00;;;;7409013;19;20124;-88
2023/08/25 04:25:40;;;;;;;5.20;3.13;;;;;18.30;93817.00;;;;7407574;19;20505;-89
2023/08/25 04:28:08;;;;;;;4.55;3.10;;;;;18.40;93814.00;;;;7410208;19;20173;-89
2023/08/25 04:30:42;;;;;;;5.38;2.78;;;;;18.40;93816.00;;;;7408743;19;20143;-88
2023/08/25 04:33:11;;;;;;;4.53;3.20;;;;;18.40;93821.00;;;;7404962;19;20149;-89
2023/08/25 04:35:44;;;;;;;4.78;3.47;;;;;18.40;93806.00;;;;7407282;19;20493;-88
2023/08/25 04:38:12;;;;;;;8.98;3.28;;;;;18.50;93812.00;;;;7407730;19;20141;-88
2023/08/25 04:40:47;;;;;;;4.50;3.10;;;;;18.70;93800.00;;;;7409421;19;20132;-88
2023/08/25 04:43:14;;;;;;;3.72;2.97;;;;;18.80;93795.00;;;;7408944;19;20160;-90
2023/08/25 04:45:42;;;;;;;8.20;3.38;;;;;18.90;93802.00;;;;7406752;19;20598;-90
2023/08/25 04:48:17;;;;;;;7.55;3.58;;;;;19.00;93789.00;;;;7409409;19;20148;-90
2023/08/25 04:50:45;;;;;;;5.30;2.92;;;;;19.10;93783.00;;;;7412832;19;20485;-90
2023/08/25 04:53:13;;;;;;;4.38;2.95;;;;;19.00;93787.00;;;;7406478;19;20639;-91
2023/08/25 04:55:48;;;;;;;7.97;3.00;;;;;19.10;93780.00;;;;7407981;19;20606;-90
2023/08/25 04:58:17;;;;;;;4.75;2.70;;;;;19.20;93768.00;;;;7407695;19;20165;-90
2023/08/25 05:00:54;;;;;;;5.95;3.05;;;;;19.20;93765.00;;;;7407911;19;20184;-90
2023/08/25 05:03:29;;;;;;;3.63;3.05;;;;;19.30;93769.00;;;;7405351;19;20141;-90
2023/08/25 05:06:04;;;;;;;4.25;2.95;;;;;19.30;93773.00;;;;7410393;19;20686;-91
2023/08/25 05:08:32;;;;;;;3.67;2.97;;;;;19.50;93772.00;;;;7409473;19;20154;-89
2023/08/25 05:11:09;;;;;;;8.45;3.22;;;;;19.60;93760.00;;;;7412788;19;20566;-90
2023/08/25 05:13:37;;;;;;;7.75;2.90;;;;;19.60;93777.00;;;;7409988;19;20809;-90
2023/08/25 05:16:07;;;;;;;6.10;3.35;;;;;19.70;93767.00;;;;7410131;19;20149;-90
2023/08/25 05:18:42;;;;;;;7.50;2.70;;;;;19.80;93768.00;;;;7407596;19;20124;-91
2023/08/25 05:21:11;;;;;;;10.45;3.13;;;;;19.80;93768.00;;;;7404325;19;20176;-89
2023/08/25 05:23:46;;;;;;;6.38;3.00;;;;;19.90;93774.00;;;;7405721;19;20132;-90
2023/08/25 05:26:14;;;;;;;5.50;3.00;;;;;19.90;93784.00;;;;7406336;19;20153;-90
2023/08/25 05:28:49;;;;;;;7.90;3.00;;;;;20.00;93791.00;;;;7406823;19;20172;-90
2023/08/25 05:31:23;;;;;;;10.23;3.20;;;;;20.00;93806.00;;;;7409825;19;20129;-89
2023/08/25 05:33:58;;;;;;;4.70;3.15;;;;;19.90;93821.00;;;;7407256;19;20615;-90
2023/08/25 05:36:26;;;;;;;8.07;3.35;;;;;19.80;93833.00;;;;7424216;19;20132;-91
2023/08/25 05:39:02;;;;;;;6.95;3.63;;;;;19.80;93848.00;;;;7432274;19;20144;-90
2023/08/25 05:41:30;;;;;;;6.43;2.80;;;;;19.70;93853.00;;;;7428774;19;20148;-90
2023/08/25 05:44:05;;;;;;;4.38;2.90;;;;;19.70;93878.00;;;;7417094;19;20169;-88
2023/08/25 05:46:41;;;;;;;4.32;2.65;;;;;19.60;93897.00;;;;7405311;19;20647;-90
2023/08/25 05:49:15;;;;;;;6.28;2.90;;;;;19.60;93909.00;;;;7405460;19;20148;-88
2023/08/25 05:51:43;;;;;;;6.35;3.45;;;;;19.50;93937.00;;;;7405715;19;20189;-89
2023/08/25 05:54:17;;;;;;;6.70;3.15;;;;;19.40;93981.00;;;;7406559;19;20129;-96
2023/08/25 05:56:45;;;;;;;4.05;2.70;;;;;19.30;94031.00;;;;7411669;19;20148;-93
2023/08/25 05:59:20;;;;;;;9.40;3.30;;;;;19.20;94091.00;;;;7405272;19;20136;-94
2023/08/25 06:01:55;;;;;;;8.13;3.17;;;;;19.10;94082.00;;;;7404108;19;20172;-96
2023/08/25 06:04:36;;;;;;;4.38;2.78;;;;;19.00;94065.00;;;;7404475;19;20132;-94
2023/08/25 06:07:11;;;;;;;5.45;3.20;;;;;18.90;94057.00;;;;7410754;19;20550;-93
2023/08/25 06:09:41;;;;;;;5.80;3.47;;;;;19.10;94083.00;;;;7405445;19;20144;-90
2023/08/25 06:12:16;;;;;;;7.10;3.55;;;;;19.00;94085.00;;;;7411427;19;20133;-92
2023/08/25 06:14:44;;;;;;;7.03;3.58;;;;;19.00;94096.00;;;;7407790;19;20149;-91
2023/08/25 06:17:19;;;;;;;7.10;3.65;;;;;18.80;94078.00;;;;7402930;19;20136;-87
2023/08/25 06:19:53;;;;;;;5.72;3.42;;;;;18.70;94061.00;;;;7392562;19;20155;-90
2023/08/25 06:22:28;;;;;;;6.18;3.38;;;;;18.50;94053.00;;;;7393992;19;20136;-87
2023/08/25 06:25:03;;;;;;;3.85;3.22;;;;;18.50;94066.00;;;;7397496;19;20251;-90
2023/08/25 06:27:31;;;;;;;8.30;3.70;;;;;18.20;94065.00;;;;7410896;19;20161;-89
2023/08/25 06:30:08;;;;;;;4.00;3.20;;;;;17.90;94069.00;;;;7420521;19;20153;-89
2023/08/25 06:32:36;;;;;;;4.20;3.75;;;;;17.90;94068.00;;;;7419799;19;20140;-89
2023/08/25 06:35:12;;;;;;;7.40;3.78;;;;;17.70;94042.00;;;;7410378;19;20129;-90
2023/08/25 06:37:46;;;;;;;4.10;3.63;;;;;17.60;94011.00;;;;7416474;19;20148;-92
2023/08/25 06:40:14;;;;;;;6.20;4.00;;;;;17.50;94015.00;;;;7415891;19;20783;-93
2023/08/25 06:42:49;;;;;;;5.93;3.60;;;;;17.40;94039.00;;;;7419825;19;20152;-93
2023/08/25 06:45:23;;;;;;;5.68;4.05;;;;;17.40;94016.00;;;;7415075;19;20146;-92
2023/08/25 06:47:52;;;;;;;6.78;3.53;;;;;17.30;94007.00;;;;7415997;19;20144;-92
2023/08/25 06:50:26;;;;;;;5.18;3.65;;;;;17.30;93998.00;;;;7416604;19;20152;-92
2023/08/25 06:52:54;;;;;;;6.55;3.83;;;;;17.30;93997.00;;;;7414373;19;20154;-92
2023/08/25 06:55:29;;;;;;;5.57;3.75;;;;;17.30;94008.00;;;;7397685;19;20898;-89
2023/08/25 06:58:05;;;;;;;7.05;3.88;;;;;17.30;94028.00;;;;7397911;19;20477;-90
2023/08/25 07:00:34;;;;;;;4.90;4.13;;;;;17.30;94048.00;;;;7396689;19;20144;-90
2023/08/25 07:03:16;;;;;;;9.75;4.68;;;;;17.20;94059.00;;;;7396268;19;20184;-91
2023/08/25 07:05:44;;;;;;;5.57;4.07;;;;;17.20;94046.00;;;;7395910;19;20211;-90
2023/08/25 07:08:20;;;;;;;4.57;3.97;;;;;17.10;94051.00;;;;7395806;19;20804;-89
2023/08/25 07:10:55;;;;;;;5.00;3.78;;;;;17.20;94077.00;;;;7397937;19;20171;-91
2023/08/25 07:13:31;;;;;;;7.13;3.92;;;;;17.20;94084.00;;;;7397630;19;20626;-89
2023/08/25 07:16:00;;;;;;;6.45;3.80;;;;;17.20;94097.00;;;;7396217;19;20152;-90
2023/08/25 07:18:34;;;;;;;4.15;3.60;;;;;17.20;94109.00;;;;7397782;19;20157;-90
2023/08/25 07:21:10;;;;;;;5.32;3.40;;;;;17.10;94123.00;;;;7403590;19;20132;-90
2023/08/25 07:23:43;;;;;;;5.22;3.78;;;;;17.20;94137.00;;;;7413997;19;20149;-90
2023/08/25 07:26:20;;;;;;;4.50;3.78;;;;;17.20;94128.00;;;;7415865;19;20153;-91
2023/08/25 07:28:48;;;;;;;4.68;3.35;;;;;17.20;94121.00;;;;7416549;19;20145;-91
2023/08/25 07:31:23;;;;;;;4.13;3.55;;;;;17.20;94126.00;;;;7412980;19;20155;-90
2023/08/25 07:33:57;;;;;;;7.15;3.35;;;;;17.20;94130.00;;;;7413824;19;20145;-89
2023/08/25 07:36:32;;;;;;;9.32;3.45;;;;;17.20;94128.00;;;;7413281;19;20504;-91
2023/08/25 07:38:59;;;;;;;6.18;3.13;;;;;17.10;94128.00;;;;7417140;19;20141;-90
2023/08/25 07:41:33;;;;;;;6.57;3.25;;;;;17.10;94122.00;;;;7415808;19;20145;-93
2023/08/25 07:44:08;;;;;;;3.53;3.08;;;;;17.10;94131.00;;;;7395779;19;20157;-89
2023/08/25 07:46:43;;;;;;;4.63;2.92;;;;;17.00;94126.00;;;;7394848;19;20156;-91
2023/08/25 07:49:17;;;;;;;5.93;3.20;;;;;17.00;94131.00;;;;7397750;19;20148;-93
2023/08/25 07:51:51;;;;;;;6.53;3.13;;;;;17.10;94113.00;;;;7403365;19;20175;-91
2023/08/25 07:54:27;;;;;;;5.45;3.22;;;;;17.00;94134.00;;;;7400754;19;20539;-94
2023/08/25 07:57:02;;;;;;;9.30;3.35;;;;;17.00;94117.00;;;;7400383;19;20148;-92
2023/08/25 07:59:36;;;;;;;4.80;3.63;;;;;17.10;94103.00;;;;7399616;19;20155;-90
2023/08/25 08:02:17;;;;;;;5.47;3.58;;;;;16.90;94107.00;;;;7397395;19;20203;-88
2023/08/25 08:04:45;;;;;;;4.10;3.50;;;;;17.00;94102.00;;;;7401070;19;20666;-92
2023/08/25 08:07:20;;;;;;;9.00;3.58;;;;;16.90;94096.00;;;;7400604;19;20133;-93
2023/08/25 08:09:48;;;;;;;6.82;3.83;;;;;16.90;94107.00;;;;7401790;19;20152;-93
2023/08/25 08:12:22;;;;;;;5.68;3.58;;;;;16.90;94101.00;;;;7400644;19;20147;-91
2023/08/25 08:14:50;;;;;;;8.20;4.07;;;;;16.90;94094.00;;;;7400969;19;20462;-91
2023/08/25 08:17:25;;;;;;;12.88;4.20;;;;;16.90;94090.00;;;;7399566;19;20546;-87
2023/08/25 08:19:53;;;;;;;8.75;4.43;;;;;16.90;94073.00;;;;7397027;19;20626;-90
2023/08/25 08:22:28;;;;;;;7.60;3.90;;;;;16.80;94064.00;;;;7397179;19;20165;-90
2023/08/25 08:24:56;;;;;;;6.35;3.97;;;;;16.80;94054.00;;;;7398508;19;20141;-90
2023/08/25 08:27:30;;;;;;;5.38;3.88;;;;;16.80;94042.00;;;;7396181;19;20152;-90
2023/08/25 08:29:58;;;;;;;5.47;3.85;;;;;16.80;94040.00;;;;7398520;19;20159;-90
2023/08/25 08:32:44;;;;;;;6.85;3.55;;;;;16.80;94017.00;;;;7397306;19;20152;-91
2023/08/25 08:35:13;;;;;;;5.65;4.20;;;;;16.80;93992.00;;;;7399668;19;20172;-92
2023/08/25 08:37:48;;;;;;;9.80;3.80;;;;;16.80;93967.00;;;;7401230;19;20604;-92
2023/08/25 08:40:16;;;;;;;10.25;3.28;;;;;16.80;93955.00;;;;7399599;19;20136;-93
2023/08/25 08:42:53;;;;;;;4.85;3.63;;;;;17.00;93953.00;;;;7402000;19;20165;-94
2023/08/25 08:45:24;;;;;;;6.13;3.15;;;;;17.00;93937.00;;;;7401562;19;20635;-91
2023/08/25 08:48:03;;;;;;;9.48;3.70;;;;;17.00;93913.00;;;;7400383;19;20163;-93
2023/08/25 08:50:33;;;;;;;5.32;3.47;;;;;17.00;93887.00;;;;7401106;19;20151;-93
2023/08/25 08:53:08;;;;;;;4.20;3.22;;;;;17.10;93887.00;;;;7400746;19;20129;-95
2023/08/25 08:55:38;;;;;;;7.35;3.35;;;;;17.10;93901.00;;;;7398746;19;20152;-93
2023/08/25 08:58:15;;;;;;;5.65;3.67;;;;;17.20;93902.00;;;;7400290;19;20156;-92
2023/08/25 09:00:43;;;;;;;6.28;3.47;;;;;17.40;93909.00;;;;7397475;19;20652;-92
2023/08/25 09:03:26;;;;;;;6.70;4.10;;;;;17.60;93926.00;;;;7398277;19;20171;-91
2023/08/25 09:05:58;;;;;;;4.90;3.95;;;;;17.60;93930.00;;;;7396979;19;20137;-91
2023/08/25 09:08:36;;;;;;;5.22;3.92;;;;;17.70;93920.00;;;;7396821;19;20152;-91
2023/08/25 09:11:05;;;;;;;4.10;3.72;;;;;17.70;93911.00;;;;7397656;19;20500;-92
2023/08/25 09:13:39;;;;;;;4.45;3.72;;;;;17.80;93895.00;;;;7397019;19;20128;-92
2023/08/25 09:16:13;;;;;;;6.20;3.95;;;;;18.00;93907.00;;;;7399465;19;20616;-91
2023/08/25 09:18:41;;;;;;;5.88;4.10;;;;;17.90;93897.00;;;;7398559;19;20151;-89
2023/08/25 09:21:23;;;;;;;3.92;3.53;;;;;17.80;93916.00;;;;7395866;19;20166;-90
2023/08/25 09:24:00;;;;;;;4.35;3.30;;;;;17.70;93924.00;;;;7391304;19;20180;-89
2023/08/25 09:26:34;;;;;;;7.03;3.63;;;;;17.70;93908.00;;;;7393466;19;20144;-90
2023/08/25 09:29:10;;;;;;;7.30;3.75;;;;;17.80;93890.00;;;;7393659;19;20145;-89
2023/08/25 09:31:45;;;;;;;5.03;3.67;;;;;17.80;93894.00;;;;7394042;19;20137;-89
2023/08/25 09:34:20;;;;;;;5.28;3.42;;;;;17.80;93905.00;;;;7392023;19;20634;-88
2023/08/25 09:36:52;;;;;;;7.35;3.72;;;;;17.80;93900.00;;;;7394833;19;20148;-88
2023/08/25 09:39:27;;;;;;;4.53;3.35;;;;;18.00;93899.00;;;;7395174;19;20495;-89
2023/08/25 09:42:06;;;;;;;5.30;3.70;;;;;18.20;93904.00;;;;7392225;19;20156;-88
2023/08/25 09:44:34;;;;;;;7.03;3.63;;;;;18.40;93906.00;;;;7391447;19;20144;-86
2023/08/25 09:47:11;;;;;;;3.75;3.22;;;;;18.50;93910.00;;;;7392880;19;20125;-89
2023/08/25 09:49:40;;;;;;;4.88;3.38;;;;;18.80;93901.00;;;;7391676;19;20137;-85
2023/08/25 09:52:17;;;;;;;4.78;3.72;;;;;18.80;93898.00;;;;7393208;19;20127;-93
2023/08/25 09:54:51;;;;;;;5.63;3.25;;;;;18.80;93902.00;;;;7394003;19;20165;-86
2023/08/25 09:57:25;;;;;;;5.63;3.50;;;;;18.70;93905.00;;;;7391449;19;20168;-84
2023/08/25 10:00:00;;;;;;;5.68;3.20;;;;;18.80;93909.00;;;;7390347;19;20160;-85
2023/08/25 10:02:47;;;;;;;4.70;3.28;;;;;18.70;93913.00;;;;7389126;19;20179;-86
2023/08/25 10:05:15;;;;;;;4.20;3.78;;;;;18.80;93919.00;;;;7387670;19;20192;-85
2023/08/25 10:07:51;;;;;;;4.53;3.38;;;;;18.80;93915.00;;;;7388059;19;20135;-83
2023/08/25 10:10:23;;;;;;;6.32;3.65;;;;;18.60;93898.00;;;;7390413;19;20607;-83
2023/08/25 10:12:59;;;;;;;4.07;3.63;;;;;18.70;93903.00;;;;7391776;19;20167;-86
2023/08/25 10:15:34;;;;;;;5.47;3.67;;;;;18.80;93905.00;;;;7389348;19;20152;-91
2023/08/25 10:18:09;;;;;;;5.13;3.30;;;;;19.00;93896.00;;;;7388153;19;20148;-84
2023/08/25 10:20:44;;;;;;;4.93;3.08;;;;;19.30;93909.00;;;;7388426;19;20141;-85
2023/08/25 10:23:14;;;;;;;3.60;3.22;;;;;19.50;93910.00;;;;7390985;19;20204;-88
2023/08/25 10:25:51;;;;;;;4.38;3.10;;;;;19.80;93914.00;;;;7390153;19;20179;-85
2023/08/25 10:28:19;;;;;;;4.32;3.08;;;;;20.00;93925.00;;;;7391470;19;20133;-85
2023/08/25 10:30:47;;;;;;;5.22;3.08;;;;;20.30;93922.00;;;;7392434;19;20149;-90
2023/08/25 10:33:22;;;;;;;6.60;3.08;;;;;20.50;93915.00;;;;7394423;19;20209;-85
2023/08/25 10:35:54;;;;;;;4.00;2.55;;;;;20.50;93927.00;;;;7391501;19;20264;-82
2023/08/25 10:38:34;;;;;;;3.28;2.45;;;;;20.30;93927.00;;;;7394544;19;20173;-87
2023/08/25 10:41:17;;;;;;;3.95;2.60;;;;;20.30;93913.00;;;;7390037;19;20140;-84
2023/08/25 10:43:53;;;;;;;3.50;2.63;;;;;20.30;93914.00;;;;7388258;19;20140;-88
2023/08/25 10:46:27;;;;;;;6.40;2.88;;;;;20.30;93911.00;;;;7393294;19;20168;-84
2023/08/25 10:49:15;;;;;;;5.22;2.92;;;;;20.20;93904.00;;;;7390089;19;20610;-83
2023/08/25 10:51:50;;;;;;;3.65;2.40;;;;;20.00;93909.00;;;;7393626;19;20132;-84
2023/08/25 10:54:18;;;;;;;2.92;2.33;;;;;20.00;93904.00;;;;7390566;19;20156;-84
2023/08/25 10:56:53;;;;;;;3.63;2.72;;;;;19.90;93896.00;;;;7389476;19;20499;-87
2023/08/25 10:59:28;;;;;;;4.47;2.50;;;;;20.00;93896.00;;;;7393508;19;20199;-85
2023/08/25 11:02:02;;;;;;;2.90;2.33;;;;;19.80;93891.00;;;;7394483;19;20705;-86
2023/08/25 11:04:45;;;;;;;3.00;2.47;;;;;19.80;93882.00;;;;7393748;19;20159;-85
2023/08/25 11:07:41;;;;;;;3.95;2.53;;;;;19.80;93891.00;;;;7395089;19;20149;-88
2023/08/25 11:10:34;;;;;;;3.78;2.75;;;;;19.80;93884.00;;;;7396484;19;20199;-87
2023/08/25 11:13:08;;;;;;;4.55;2.50;;;;;19.90;93912.00;;;;7390867;19;20155;-88
2023/08/25 11:15:55;;;;;;;4.22;2.40;;;;;19.70;93909.00;;;;7393305;19;20137;-87
2023/08/25 11:18:24;;;;;;;2.95;2.70;;;;;19.60;93906.00;;;;7391123;19;20557;-87
2023/08/25 11:21:08;;;;;;;4.53;2.88;;;;;19.50;93920.00;;;;7388955;19;20167;-87
2023/08/25 11:23:44;;;;;;;3.10;2.80;;;;;19.40;93910.00;;;;7389193;19;20480;-85
2023/08/25 11:26:19;;;;;;;2.92;2.50;;;;;19.40;93896.00;;;;7399389;19;20501;-89
2023/08/25 11:28:54;;;;;;;4.95;2.90;;;;;19.50;93909.00;;;;7397807;19;20172;-87
2023/08/25 11:31:23;;;;;;;3.10;2.60;;;;;19.60;93911.00;;;;7397147;19;20162;-89
2023/08/25 11:33:58;;;;;;;4.18;2.90;;;;;19.50;93894.00;;;;7394410;19;20488;-89
2023/08/25 11:36:26;;;;;;;3.83;2.90;;;;;19.40;93880.00;;;;7398150;19;20159;-87
2023/08/25 11:39:00;;;;;;;6.45;3.40;;;;;19.60;93898.00;;;;7398435;19;20152;-87
2023/08/25 11:41:29;;;;;;;3.55;2.95;;;;;19.60;93891.00;;;;7396951;19;20153;-88
2023/08/25 11:44:05;;;;;;;3.13;2.67;;;;;19.60;93890.00;;;;7398500;19;20192;-85
2023/08/25 11:46:40;;;;;;;5.50;2.90;;;;;19.60;93873.00;;;;7395240;19;20140;-84
2023/08/25 11:49:19;;;;;;;4.13;2.92;;;;;19.70;93865.00;;;;7397665;19;20598;-84
2023/08/25 11:51:52;;;;;;;4.28;3.20;;;;;19.80;93846.00;;;;7396102;19;20156;-87
2023/08/25 11:54:27;;;;;;;4.65;3.05;;;;;19.90;93848.00;;;;7394152;19;20132;-85
2023/08/25 11:57:00;;;;;;;4.25;3.05;;;;;20.00;93845.00;;;;7394163;19;20144;-86
2023/08/25 11:59:40;;;;;;;3.50;3.20;;;;;20.10;93845.00;;;;7397214;19;20159;-84
2023/08/25 12:02:07;;;;;;;5.78;3.28;;;;;20.20;93818.00;;;;7394829;19;20188;-85
2023/08/25 12:04:56;;;;;;;4.18;3.22;;;;;20.30;93819.00;;;;7395832;19;20159;-87
2023/08/25 12:07:32;;;;;;;6.57;3.20;;;;;20.40;93810.00;;;;7396607;19;20149;-87
2023/08/25 12:10:08;;;;;;;11.73;3.97;;;;;20.50;93804.00;;;;7395865;19;20157;-90
2023/08/25 12:12:42;;;;;;;6.70;3.83;;;;;20.70;93795.00;;;;7398161;19;20147;-91
2023/08/25 12:15:16;;;;;;;4.85;3.28;;;;;20.80;93788.00;;;;7397293;19;20144;-88
2023/08/25 12:17:46;;;;;;;6.82;3.25;;;;;21.10;93772.00;;;;7397127;19;20153;-88
2023/08/25 12:20:17;;;;;;;5.43;3.10;;;;;21.20;93753.00;;;;7397550;19;20141;-87
2023/08/25 12:22:56;;;;;;;4.60;3.60;;;;;21.30;93747.00;;;;7397118;19;20212;-87
2023/08/25 12:25:24;;;;;;;7.90;3.28;;;;;21.40;93736.00;;;;7395218;19;20527;-88
2023/08/25 12:27:59;;;;;;;5.85;3.40;;;;;21.70;93747.00;;;;7393320;19;20136;-88
2023/08/25 12:30:34;;;;;;;3.67;3.05;;;;;21.80;93776.00;;;;7395323;19;20316;-88
2023/08/25 12:33:02;;;;;;;5.03;3.42;;;;;21.90;93789.00;;;;7396064;19;20631;-89
2023/08/25 12:35:37;;;;;;;6.68;3.60;;;;;22.10;93794.00;;;;7394311;19;20145;-88
2023/08/25 12:38:04;;;;;;;9.70;3.40;;;;;22.40;93832.00;;;;7394151;19;20239;-86
2023/08/25 12:40:41;;;;;;;6.93;3.60;;;;;22.40;93825.00;;;;7394153;19;20148;-87
2023/08/25 12:43:09;;;;;;;6.95;3.33;;;;;22.40;93821.00;;;;7394306;19;20129;-90
2023/08/25 12:45:46;;;;;;;7.97;3.45;;;;;22.30;93815.00;;;;7394093;19;20168;-85
2023/08/25 12:48:16;;;;;;;4.65;3.60;;;;;22.60;93812.00;;;;7394167;19;20161;-84
2023/08/25 12:50:50;;;;;;;5.47;3.25;;;;;22.60;93813.00;;;;7394198;19;20618;-85